Time;durP1;ratioP1;P1;durP2;ratioP2;P2;SDS_P1;SDS_P2;PMS_P1;PMS_P2;Temp;Humidity;BMP_temperature;BMP_pressure;BME280_temperature;BME280_humidity;BME280_pressure;Samples;Min_cycle;Max_cycle;Signal;HPM_P1;HPM_P2
2023/08/06 00:00:23;;;;;;;6.45;3.60;;;16.00;99.90;;;;;;5052797;28;20472;-56
2023/08/06 00:02:49;;;;;;;5.20;3.10;;;16.00;99.90;;;;;;5050546;28;20044;-56
2023/08/06 00:05:17;;;;;;;5.63;3.47;;;16.10;99.90;;;;;;5050942;28;20063;-56
2023/08/06 00:07:44;;;;;;;4.90;3.78;;;16.10;99.90;;;;;;5049320;28;20425;-56
2023/08/06 00:10:11;;;;;;;6.23;3.53;;;16.00;99.90;;;;;;5052578;28;20061;-54
2023/08/06 00:12:37;;;;;;;4.88;3.25;;;16.00;99.90;;;;;;5052387;28;20110;-57
2023/08/06 00:15:03;;;;;;;6.13;3.17;;;16.00;99.90;;;;;;5052674;28;20409;-54
2023/08/06 00:17:29;;;;;;;4.25;3.08;;;16.00;99.90;;;;;;5052603;28;20033;-56
2023/08/06 00:19:55;;;;;;;4.88;3.58;;;16.00;99.90;;;;;;5050851;28;20488;-56
2023/08/06 00:22:20;;;;;;;8.15;3.88;;;16.00;99.90;;;;;;5050895;28;20043;-55
2023/08/06 00:24:46;;;;;;;4.32;3.22;;;16.00;99.90;;;;;;5051797;28;20104;-48
2023/08/06 00:27:11;;;;;;;4.38;3.78;;;16.00;99.90;;;;;;5052563;28;20472;-49
2023/08/06 00:29:37;;;;;;;3.92;3.13;;;16.10;99.90;;;;;;5049450;28;20385;-69
2023/08/06 00:32:03;;;;;;;11.93;3.97;;;16.00;99.90;;;;;;5033974;28;20064;-56
2023/08/06 00:34:28;;;;;;;6.55;3.63;;;16.10;99.90;;;;;;5051400;28;20082;-57
2023/08/06 00:36:54;;;;;;;4.10;3.70;;;16.00;99.90;;;;;;5050448;28;20496;-56
2023/08/06 00:39:20;;;;;;;7.82;3.90;;;16.00;99.90;;;;;;5048965;28;20104;-56
2023/08/06 00:41:45;;;;;;;5.38;3.55;;;16.00;99.90;;;;;;5050727;28;20028;-56
2023/08/06 00:44:11;;;;;;;6.40;3.50;;;16.10;99.90;;;;;;5052370;28;20033;-55
2023/08/06 00:46:36;;;;;;;5.43;3.58;;;16.00;99.90;;;;;;5050419;28;20056;-55
2023/08/06 00:49:02;;;;;;;4.72;3.47;;;16.00;99.90;;;;;;5052107;28;20367;-56
2023/08/06 00:51:28;;;;;;;5.70;4.50;;;16.10;99.90;;;;;;5031525;28;20021;-56
2023/08/06 00:53:55;;;;;;;8.23;3.80;;;16.10;99.90;;;;;;5047487;28;20021;-55
2023/08/06 00:56:21;;;;;;;6.40;4.30;;;16.00;99.90;;;;;;5047663;28;20021;-56
2023/08/06 00:58:47;;;;;;;6.32;4.10;;;16.10;99.90;;;;;;5047282;28;20028;-54
2023/08/06 01:01:13;;;;;;;4.45;3.13;;;16.10;99.90;;;;;;5051741;28;20029;-56
2023/08/06 01:03:38;;;;;;;7.22;4.30;;;16.10;99.90;;;;;;5051006;28;20021;-56
2023/08/06 01:06:05;;;;;;;5.63;4.00;;;16.10;99.90;;;;;;5049320;28;20033;-56
2023/08/06 01:08:56;;;;;;;5.75;3.40;;;16.10;99.90;;;;;;5051186;28;20039;-56
2023/08/06 01:11:37;;;;;;;4.70;3.40;;;16.10;99.90;;;;;;5050108;28;20082;-56
2023/08/06 01:14:13;;;;;;;7.60;3.90;;;16.10;99.90;;;;;;5053740;28;20033;-56
2023/08/06 01:16:40;;;;;;;4.85;3.45;;;16.10;99.90;;;;;;5053939;28;20114;-57
2023/08/06 01:19:19;;;;;;;3.95;3.28;;;16.10;99.90;;;;;;5054234;28;20039;-56
2023/08/06 01:21:44;;;;;;;4.47;3.53;;;16.10;99.90;;;;;;5054064;28;20037;-55
2023/08/06 01:24:10;;;;;;;3.95;3.00;;;16.10;99.90;;;;;;5054816;28;20478;-56
2023/08/06 01:26:45;;;;;;;5.00;3.35;;;16.00;99.90;;;;;;5053520;28;20100;-55
2023/08/06 01:29:25;;;;;;;5.82;3.58;;;16.00;99.90;;;;;;5054300;28;20037;-56
2023/08/06 01:31:52;;;;;;;5.13;3.47;;;16.00;99.90;;;;;;5052481;28;20090;-53
2023/08/06 01:34:21;;;;;;;;;;;16.00;99.90;;;;;;5052639;28;20075;-56
2023/08/06 01:36:47;;;;;;;9.65;3.67;;;16.00;99.90;;;;;;5055136;28;20003;-56
2023/08/06 01:39:13;;;;;;;8.73;3.35;;;16.00;99.90;;;;;;5054931;28;20109;-56
2023/08/06 01:41:38;;;;;;;7.60;4.03;;;16.00;99.90;;;;;;5055349;28;20049;-57
2023/08/06 01:44:04;;;;;;;6.30;4.20;;;15.90;99.90;;;;;;5054269;28;20068;-57
2023/08/06 01:46:30;;;;;;;6.20;4.20;;;15.90;99.90;;;;;;5049856;28;20512;-56
2023/08/06 01:48:56;;;;;;;5.18;3.45;;;15.90;99.90;;;;;;5054807;28;20470;-56
2023/08/06 01:51:21;;;;;;;5.88;3.50;;;15.90;99.90;;;;;;5054246;28;20025;-56
2023/08/06 01:53:47;;;;;;;4.07;3.63;;;15.90;99.90;;;;;;5052000;28;20017;-51
2023/08/06 01:56:12;;;;;;;7.05;4.03;;;15.90;99.90;;;;;;5052523;28;20035;-55
2023/08/06 01:58:38;;;;;;;8.07;4.40;;;15.90;99.90;;;;;;5049236;28;20496;-57
2023/08/06 02:01:04;;;;;;;7.03;3.75;;;15.90;99.90;;;;;;5054392;28;20568;-56
2023/08/06 02:03:29;;;;;;;3.63;3.13;;;15.90;99.90;;;;;;5054164;28;20116;-56
2023/08/06 02:05:55;;;;;;;12.88;4.95;;;15.90;99.90;;;;;;5054685;28;20025;-56
2023/08/06 02:08:21;;;;;;;5.32;3.58;;;15.90;99.90;;;;;;5053908;28;20469;-56
2023/08/06 02:10:46;;;;;;;8.93;4.57;;;15.90;99.90;;;;;;5054268;28;20056;-56
2023/08/06 02:13:12;;;;;;;5.60;3.78;;;15.80;99.90;;;;;;5053042;28;20485;-56
2023/08/06 02:15:47;;;;;;;7.20;3.97;;;15.80;99.90;;;;;;5054324;28;20029;-55
2023/08/06 02:18:13;;;;;;;8.10;3.83;;;15.80;99.90;;;;;;5054106;28;20021;-56
2023/08/06 02:20:39;;;;;;;6.93;4.15;;;15.80;99.90;;;;;;5053024;28;20385;-57
2023/08/06 02:23:04;;;;;;;8.05;4.32;;;15.80;99.90;;;;;;5054664;28;20036;-56
2023/08/06 02:25:30;;;;;;;5.00;3.90;;;15.80;99.90;;;;;;5052394;28;20033;-56
2023/08/06 02:27:55;;;;;;;6.72;4.15;;;15.80;99.90;;;;;;5053248;28;20048;-55
2023/08/06 02:30:21;;;;;;;6.15;4.65;;;15.70;99.90;;;;;;5052082;28;20083;-55
2023/08/06 02:32:47;;;;;;;5.22;4.25;;;15.70;99.90;;;;;;5033972;28;20021;-56
2023/08/06 02:35:12;;;;;;;10.05;5.57;;;15.70;99.90;;;;;;5054372;28;20478;-57
2023/08/06 02:37:38;;;;;;;6.80;4.43;;;15.60;99.90;;;;;;5052595;28;20047;-56
2023/08/06 02:40:04;;;;;;;7.72;5.18;;;15.60;99.90;;;;;;5052757;28;20482;-56
2023/08/06 02:42:30;;;;;;;6.75;4.75;;;15.60;99.90;;;;;;5048801;28;20079;-56
2023/08/06 02:44:55;;;;;;;7.47;5.22;;;15.60;99.90;;;;;;5049671;28;20505;-56
2023/08/06 02:47:21;;;;;;;7.40;3.83;;;15.60;99.90;;;;;;5048326;28;20036;-58
2023/08/06 02:49:47;;;;;;;8.00;5.00;;;15.70;99.90;;;;;;5050438;28;20401;-53
2023/08/06 02:52:13;;;;;;;7.90;4.65;;;15.70;99.90;;;;;;5054247;28;20025;-56
2023/08/06 02:54:38;;;;;;;4.90;3.90;;;15.60;99.90;;;;;;5050579;28;20013;-56
2023/08/06 02:57:05;;;;;;;6.28;4.72;;;15.70;99.90;;;;;;5033172;28;20057;-56
2023/08/06 02:59:31;;;;;;;5.90;4.32;;;15.70;99.90;;;;;;5053448;28;20118;-56
2023/08/06 03:01:57;;;;;;;6.78;4.30;;;15.70;99.90;;;;;;5044860;28;20033;-55
2023/08/06 03:04:22;;;;;;;7.93;5.15;;;15.70;99.90;;;;;;5041418;28;20367;-56
2023/08/06 03:06:50;;;;;;;8.60;5.13;;;15.70;99.90;;;;;;5053772;28;20074;-56
2023/08/06 03:09:16;;;;;;;;;;;15.60;99.90;;;;;;5054074;28;20389;-55
2023/08/06 03:11:42;;;;;;;11.60;4.85;;;15.60;99.90;;;;;;5050654;28;19921;-49
2023/08/06 03:14:07;;;;;;;7.00;5.00;;;15.50;99.90;;;;;;5031657;28;20057;-56
2023/08/06 03:16:33;;;;;;;6.45;4.70;;;15.60;99.90;;;;;;5026353;28;20389;-55
2023/08/06 03:18:58;;;;;;;7.95;4.97;;;15.60;99.90;;;;;;5046937;28;20017;-56
2023/08/06 03:21:24;;;;;;;6.63;5.32;;;15.60;99.90;;;;;;5051342;28;20033;-56
2023/08/06 03:23:50;;;;;;;8.75;5.18;;;15.60;99.90;;;;;;5052694;28;20116;-55
2023/08/06 03:26:15;;;;;;;9.13;4.93;;;15.50;99.90;;;;;;5052605;28;20079;-56
2023/08/06 03:28:41;;;;;;;6.78;5.32;;;15.50;99.90;;;;;;5051202;28;20041;-56
2023/08/06 03:31:07;;;;;;;6.55;4.32;;;15.50;99.90;;;;;;5039879;28;20474;-56
2023/08/06 03:33:33;;;;;;;5.97;4.93;;;15.60;99.90;;;;;;5044126;28;20445;-57
2023/08/06 03:35:59;;;;;;;8.35;5.05;;;15.60;99.90;;;;;;5051603;28;20505;-57
2023/08/06 03:38:24;;;;;;;5.97;4.88;;;15.60;99.90;;;;;;5050277;28;20025;-75
2023/08/06 03:40:50;;;;;;;8.23;5.55;;;15.60;99.90;;;;;;5052396;28;20521;-55
2023/08/06 03:43:16;;;;;;;10.93;6.35;;;15.60;99.90;;;;;;5046159;28;20440;-56
2023/08/06 03:45:42;;;;;;;9.82;6.05;;;15.60;99.90;;;;;;5033479;28;20029;-56
2023/08/06 03:48:08;;;;;;;7.55;5.53;;;15.60;99.90;;;;;;5041516;28;20495;-57
2023/08/06 03:50:34;;;;;;;9.85;5.22;;;15.60;99.90;;;;;;5052200;28;20029;-56
2023/08/06 03:53:00;;;;;;;10.02;6.38;;;15.70;99.90;;;;;;5052968;28;20049;-57
2023/08/06 03:55:26;;;;;;;9.73;5.45;;;15.60;99.90;;;;;;5048605;28;20493;-57
2023/08/06 03:57:52;;;;;;;9.70;6.13;;;15.70;99.90;;;;;;5050657;28;20025;-57
2023/08/06 04:00:17;;;;;;;11.35;6.38;;;15.70;99.90;;;;;;5033431;28;20030;-57
2023/08/06 04:02:43;;;;;;;9.65;6.65;;;15.70;99.90;;;;;;5034086;28;20397;-63
2023/08/06 04:05:09;;;;;;;9.38;6.85;;;15.60;99.90;;;;;;5051746;28;20031;-56
2023/08/06 04:07:35;;;;;;;9.55;6.15;;;15.60;99.90;;;;;;5051608;28;20032;-48
2023/08/06 04:10:03;;;;;;;12.00;6.70;;;15.60;99.90;;;;;;5048289;28;20038;-48
2023/08/06 04:12:29;;;;;;;9.98;6.10;;;15.60;99.90;;;;;;5049669;28;20120;-43
2023/08/06 04:14:57;;;;;;;12.90;8.43;;;15.60;99.90;;;;;;5050851;28;20029;-43
2023/08/06 04:17:23;;;;;;;9.40;6.35;;;15.60;99.90;;;;;;5032925;28;20504;-44
2023/08/06 04:19:51;;;;;;;9.25;6.30;;;15.50;99.90;;;;;;5044195;28;20021;-47
2023/08/06 04:22:17;;;;;;;11.07;7.28;;;15.50;99.90;;;;;;5050354;28;20025;-43
2023/08/06 04:24:43;;;;;;;11.77;7.32;;;15.50;99.90;;;;;;5049189;28;20489;-43
2023/08/06 04:27:10;;;;;;;11.68;6.95;;;15.40;99.90;;;;;;5049036;28;20028;-56
2023/08/06 04:29:36;;;;;;;11.38;7.22;;;15.50;99.90;;;;;;5044704;28;20022;-57
2023/08/06 04:32:03;;;;;;;12.07;6.68;;;15.40;99.90;;;;;;5047403;28;20046;-59
2023/08/06 04:34:29;;;;;;;9.60;7.00;;;15.40;99.90;;;;;;5046491;28;20049;-52
2023/08/06 04:36:54;;;;;;;10.57;7.00;;;15.40;99.90;;;;;;5044850;28;20053;-56
2023/08/06 04:39:20;;;;;;;11.10;6.97;;;15.40;99.90;;;;;;5040535;28;20036;-59
2023/08/06 04:41:46;;;;;;;11.25;5.90;;;15.40;99.90;;;;;;5046590;28;20477;-55
2023/08/06 04:44:11;;;;;;;10.55;5.70;;;15.40;99.90;;;;;;5051052;28;20032;-57
2023/08/06 04:46:37;;;;;;;7.65;5.63;;;15.40;99.90;;;;;;5049654;28;20033;-42
2023/08/06 04:49:02;;;;;;;8.20;5.53;;;15.40;99.90;;;;;;5034033;28;20025;-42
2023/08/06 04:51:28;;;;;;;9.88;5.22;;;15.40;99.90;;;;;;5052250;28;20040;-42
2023/08/06 04:53:54;;;;;;;13.15;5.72;;;15.30;99.90;;;;;;5054429;28;20470;-41
2023/08/06 04:56:19;;;;;;;10.32;5.63;;;15.30;99.90;;;;;;5051445;28;20025;-39
2023/08/06 04:58:45;;;;;;;11.93;5.25;;;15.30;99.90;;;;;;5055401;28;20456;-37
2023/08/06 05:01:11;;;;;;;6.72;5.00;;;15.20;99.90;;;;;;5050512;28;20057;-38
2023/08/06 05:03:38;;;;;;;9.45;4.43;;;15.20;99.90;;;;;;5042547;28;20021;-36
2023/08/06 05:06:04;;;;;;;;;;;15.20;99.90;;;;;;5033287;28;20516;-36
2023/08/06 05:08:29;;;;;;;7.63;5.05;;;15.20;99.90;;;;;;5054353;28;19908;-35
2023/08/06 05:10:55;;;;;;;7.43;4.82;;;15.10;99.90;;;;;;5048405;28;20017;-35
2023/08/06 05:13:21;;;;;;;17.55;6.93;;;15.10;99.90;;;;;;5040419;28;20045;-37
2023/08/06 05:15:46;;;;;;;7.18;5.05;;;15.10;99.90;;;;;;5041780;28;20493;-37
2023/08/06 05:18:12;;;;;;;7.38;5.07;;;15.10;99.90;;;;;;5052601;28;20036;-44
2023/08/06 05:20:42;;;;;;;9.85;6.18;;;15.10;99.90;;;;;;5046104;28;20022;-36
2023/08/06 05:23:08;;;;;;;10.73;6.10;;;15.00;99.90;;;;;;5055354;28;20032;-36
2023/08/06 05:25:37;;;;;;;12.75;6.30;;;15.00;99.90;;;;;;5055912;28;20029;-36
2023/08/06 05:28:03;;;;;;;11.93;6.53;;;15.00;99.90;;;;;;5053662;28;20031;-46
2023/08/06 05:30:29;;;;;;;12.68;7.15;;;15.00;99.90;;;;;;5048422;28;20494;-35
2023/08/06 05:32:55;;;;;;;12.43;7.05;;;15.00;99.90;;;;;;5049067;28;20059;-38
2023/08/06 05:35:21;;;;;;;13.45;7.68;;;15.00;99.90;;;;;;5048345;28;20396;-36
2023/08/06 05:37:47;;;;;;;17.50;7.03;;;14.90;99.90;;;;;;5045750;28;20032;-36
2023/08/06 05:40:13;;;;;;;16.02;7.30;;;15.00;99.90;;;;;;5055442;28;20473;-36
2023/08/06 05:42:40;;;;;;;13.05;5.57;;;15.00;99.90;;;;;;5053371;28;20536;-36
2023/08/06 05:45:06;;;;;;;10.07;5.60;;;15.00;99.90;;;;;;5054719;28;20474;-36
2023/08/06 05:47:32;;;;;;;6.47;4.05;;;15.00;99.90;;;;;;5052763;28;20582;-36
2023/08/06 05:49:57;;;;;;;7.88;4.07;;;14.90;99.90;;;;;;5054482;28;20129;-40
2023/08/06 05:52:23;;;;;;;5.93;3.83;;;14.90;99.90;;;;;;5054517;28;20018;-47
2023/08/06 05:54:49;;;;;;;4.05;1.90;;;14.90;99.90;;;;;;5052433;28;20443;-38
2023/08/06 05:57:14;;;;;;;2.20;1.88;;;14.90;99.90;;;;;;5043682;28;20021;-36
2023/08/06 05:59:41;;;;;;;2.80;1.90;;;14.90;99.90;;;;;;5052963;28;20017;-38
2023/08/06 06:02:06;;;;;;;2.13;1.63;;;14.90;99.90;;;;;;5050491;28;20033;-38
2023/08/06 06:04:32;;;;;;;2.55;2.05;;;14.90;99.90;;;;;;5039879;28;20020;-40
2023/08/06 06:06:58;;;;;;;4.95;2.42;;;14.90;99.90;;;;;;5050928;28;20036;-38
2023/08/06 06:09:23;;;;;;;4.88;1.85;;;14.90;99.90;;;;;;5054935;28;20584;-36
2023/08/06 06:11:50;;;;;;;4.55;2.20;;;14.90;99.90;;;;;;5051637;28;20036;-37
2023/08/06 06:14:19;;;;;;;2.75;2.30;;;14.80;99.90;;;;;;5036988;28;20033;-36
2023/08/06 06:16:45;;;;;;;4.63;2.20;;;14.70;99.90;;;;;;5028426;28;20096;-44
2023/08/06 06:19:11;;;;;;;2.33;2.08;;;14.70;99.90;;;;;;5052827;28;20036;-40
2023/08/06 06:21:40;;;;;;;3.85;2.13;;;14.60;99.90;;;;;;5052877;28;20044;-38
2023/08/06 06:24:06;;;;;;;2.45;2.25;;;14.50;99.90;;;;;;5050580;28;20025;-47
2023/08/06 06:26:32;;;;;;;4.00;2.33;;;14.60;99.90;;;;;;5042224;28;20079;-37
2023/08/06 06:28:58;;;;;;;4.30;2.58;;;14.60;99.90;;;;;;5053502;28;20444;-38
2023/08/06 06:31:24;;;;;;;3.67;2.50;;;14.50;99.90;;;;;;5037702;28;20033;-37
2023/08/06 06:33:49;;;;;;;6.88;2.80;;;14.50;99.90;;;;;;5050415;28;20021;-36
2023/08/06 06:36:15;;;;;;;6.30;2.80;;;14.40;99.90;;;;;;5052212;28;20057;-36
2023/08/06 06:38:41;;;;;;;4.38;2.30;;;14.40;99.90;;;;;;5053445;28;20029;-37
2023/08/06 06:41:06;;;;;;;2.17;2.00;;;14.40;99.90;;;;;;5051194;28;20083;-38
2023/08/06 06:43:32;;;;;;;4.47;2.60;;;14.50;99.90;;;;;;5048910;28;20458;-36
2023/08/06 06:46:01;;;;;;;7.35;2.63;;;14.50;99.90;;;;;;5050821;28;20028;-36
2023/08/06 06:48:28;;;;;;;8.88;3.20;;;14.50;99.90;;;;;;5053063;28;20053;-36
2023/08/06 06:50:54;;;;;;;4.57;3.17;;;14.50;99.90;;;;;;5054056;28;20481;-36
2023/08/06 06:53:20;;;;;;;3.47;2.83;;;14.50;99.90;;;;;;5051530;28;20272;-36
2023/08/06 06:55:48;;;;;;;6.43;3.42;;;14.50;99.90;;;;;;5053277;28;20013;-63
2023/08/06 06:58:17;;;;;;;6.85;3.58;;;14.50;99.90;;;;;;5053189;28;20021;-35
2023/08/06 07:00:42;;;;;;;6.30;3.25;;;14.50;99.90;;;;;;5042911;28;20030;-35
2023/08/06 07:03:08;;;;;;;5.25;3.72;;;14.60;99.90;;;;;;5043277;28;20051;-35
2023/08/06 07:05:34;;;;;;;6.10;4.15;;;14.60;99.90;;;;;;5044253;28;20037;-35
2023/08/06 07:07:59;;;;;;;8.43;4.20;;;14.60;99.90;;;;;;5052161;28;20017;-35
2023/08/06 07:10:26;;;;;;;6.75;4.43;;;14.60;99.90;;;;;;5048014;28;20134;-36
2023/08/06 07:12:51;;;;;;;5.03;3.75;;;14.60;99.90;;;;;;5051523;28;20128;-34
2023/08/06 07:15:17;;;;;;;6.22;4.55;;;14.60;99.90;;;;;;5044854;28;20538;-35
2023/08/06 07:17:43;;;;;;;6.47;4.20;;;14.60;99.90;;;;;;5039652;28;20013;-47
2023/08/06 07:20:09;;;;;;;6.85;4.30;;;14.60;99.90;;;;;;5045605;28;20270;-35
2023/08/06 07:22:35;;;;;;;4.53;3.53;;;14.60;99.90;;;;;;5053654;28;20359;-37
2023/08/06 07:25:01;;;;;;;5.32;3.65;;;14.60;99.90;;;;;;5052312;28;20036;-35
2023/08/06 07:27:27;;;;;;;7.68;3.70;;;14.60;99.90;;;;;;5052219;28;20017;-34
2023/08/06 07:29:52;;;;;;;4.82;3.53;;;14.50;99.90;;;;;;5049386;28;20025;-35
2023/08/06 07:32:18;;;;;;;4.28;3.17;;;14.40;99.90;;;;;;5052060;28;20029;-44
2023/08/06 07:34:44;;;;;;;12.65;4.30;;;14.40;99.90;;;;;;5050876;28;20032;-62
2023/08/06 07:37:09;;;;;;;5.65;3.60;;;14.40;99.90;;;;;;5050377;28;20021;-35
2023/08/06 07:39:37;;;;;;;9.52;3.65;;;14.40;99.90;;;;;;5049718;28;20065;-35
2023/08/06 07:42:05;;;;;;;7.07;3.80;;;14.50;99.90;;;;;;5035660;28;20033;-35
2023/08/06 07:44:31;;;;;;;8.80;3.95;;;14.50;99.90;;;;;;5052397;28;20024;-35
2023/08/06 07:46:57;;;;;;;5.07;3.65;;;14.50;99.90;;;;;;5033392;28;20048;-35
2023/08/06 07:49:22;;;;;;;6.30;3.92;;;14.60;99.90;;;;;;5050652;28;20393;-35
2023/08/06 07:51:48;;;;;;;5.60;3.92;;;14.70;99.90;;;;;;5051172;28;20473;-35
2023/08/06 07:54:13;;;;;;;5.22;3.72;;;14.70;99.90;;;;;;5051319;28;20481;-35
2023/08/06 07:56:39;;;;;;;6.32;4.20;;;14.70;99.90;;;;;;5032445;28;20025;-34
2023/08/06 07:59:05;;;;;;;8.27;4.47;;;14.70;99.90;;;;;;5051452;28;20074;-35
2023/08/06 08:01:31;;;;;;;9.10;4.22;;;14.80;99.90;;;;;;5051573;28;20033;-36
2023/08/06 08:03:56;;;;;;;7.45;4.45;;;14.90;99.90;;;;;;5046288;28;20397;-36
2023/08/06 08:06:23;;;;;;;7.68;4.82;;;14.90;99.90;;;;;;5052245;28;20568;-43
2023/08/06 08:08:48;;;;;;;7.93;4.88;;;14.90;99.90;;;;;;5052364;28;20032;-35
2023/08/06 08:11:15;;;;;;;11.23;4.65;;;14.90;99.90;;;;;;5051993;28;20100;-49
2023/08/06 08:13:41;;;;;;;12.23;5.38;;;14.90;99.90;;;;;;5050584;28;20045;-36
2023/08/06 08:16:07;;;;;;;8.43;5.28;;;14.80;99.90;;;;;;5027095;28;20028;-35
2023/08/06 08:18:33;;;;;;;10.90;5.78;;;14.80;99.90;;;;;;5033457;28;20013;-35
2023/08/06 08:20:59;;;;;;;11.00;5.60;;;14.90;99.90;;;;;;5051591;28;20403;-36
2023/08/06 08:23:24;;;;;;;7.43;5.18;;;14.90;99.90;;;;;;5050364;28;20028;-34
2023/08/06 08:25:51;;;;;;;9.57;5.05;;;15.00;99.90;;;;;;5051200;28;20021;-35
2023/08/06 08:28:16;;;;;;;8.07;4.95;;;15.00;99.90;;;;;;5034084;28;20477;-34
2023/08/06 08:30:42;;;;;;;8.23;5.30;;;15.20;99.90;;;;;;5051139;28;20025;-34
2023/08/06 08:33:07;;;;;;;6.88;4.85;;;15.20;99.90;;;;;;5050431;28;20028;-49
2023/08/06 08:35:34;;;;;;;10.52;5.70;;;15.20;99.90;;;;;;5050610;28;20056;-53
2023/08/06 08:37:59;;;;;;;10.48;4.75;;;15.10;99.90;;;;;;5050219;28;20482;-51
2023/08/06 08:40:31;;;;;;;8.93;4.40;;;15.10;99.90;;;;;;5038653;28;20029;-35
2023/08/06 08:42:59;;;;;;;7.30;4.03;;;15.10;99.90;;;;;;5049121;28;20237;-37
2023/08/06 08:45:28;;;;;;;9.30;4.25;;;15.10;99.90;;;;;;5047714;28;20028;-36
2023/08/06 08:47:54;;;;;;;6.10;4.63;;;15.10;99.90;;;;;;5050822;28;20029;-35
2023/08/06 08:50:20;;;;;;;5.55;3.53;;;15.10;99.90;;;;;;5044077;28;20541;-36
2023/08/06 08:52:48;;;;;;;12.93;3.97;;;15.10;99.90;;;;;;5051586;28;20017;-35
2023/08/06 08:55:15;;;;;;;9.20;3.97;;;15.00;99.90;;;;;;5051212;28;20029;-34
2023/08/06 08:57:41;;;;;;;7.25;3.75;;;15.10;99.90;;;;;;5050011;28;20021;-34
2023/08/06 09:00:07;;;;;;;11.13;4.07;;;15.10;99.90;;;;;;5034526;28;20021;-34
2023/08/06 09:02:33;;;;;;;8.35;4.07;;;15.20;99.90;;;;;;5052059;28;20096;-51
2023/08/06 09:05:02;;;;;;;10.05;3.83;;;15.20;99.90;;;;;;5052016;28;20067;-36
2023/08/06 09:07:35;;;;;;;10.80;4.30;;;15.20;99.90;;;;;;5050933;28;20017;-35
2023/08/06 09:10:06;;;;;;;4.00;3.60;;;15.10;99.90;;;;;;5051946;28;20029;-34
2023/08/06 09:12:32;;;;;;;7.43;3.80;;;15.10;99.90;;;;;;5050974;28;20086;-35
2023/08/06 09:14:58;;;;;;;6.28;3.25;;;15.10;99.90;;;;;;5052063;28;20549;-57
2023/08/06 09:17:23;;;;;;;10.18;3.42;;;15.20;99.90;;;;;;5052110;28;20477;-35
2023/08/06 09:19:49;;;;;;;8.85;3.60;;;15.30;99.90;;;;;;5033476;28;20036;-36
2023/08/06 09:22:15;;;;;;;7.03;3.90;;;15.30;99.90;;;;;;5051805;28;20040;-35
2023/08/06 09:24:42;;;;;;;7.80;3.70;;;15.20;99.90;;;;;;5050132;28;20029;-35
2023/08/06 09:27:15;;;;;;;5.95;3.30;;;15.20;99.90;;;;;;5051991;28;20032;-35
2023/08/06 09:29:42;;;;;;;7.55;3.20;;;15.20;99.90;;;;;;5051078;28;20092;-44
2023/08/06 09:32:08;;;;;;;;;;;15.20;99.90;;;;;;5052353;28;20106;-36
2023/08/06 09:34:33;;;;;;;6.65;3.38;;;15.20;99.90;;;;;;5053636;28;19940;-35
2023/08/06 09:36:59;;;;;;;5.78;2.83;;;15.10;99.90;;;;;;5055559;28;20025;-35
2023/08/06 09:39:30;;;;;;;7.63;2.85;;;15.20;99.90;;;;;;5054605;28;20428;-35
2023/08/06 09:41:57;;;;;;;6.88;3.05;;;15.20;99.90;;;;;;5054681;28;20477;-42
2023/08/06 09:44:25;;;;;;;;;;;15.20;99.90;;;;;;5055781;28;20433;-35
2023/08/06 09:46:58;;;;;;;6.35;3.35;;;15.20;99.90;;;;;;5052519;28;20480;-36
2023/08/06 09:49:36;;;;;;;9.85;3.67;;;15.30;99.90;;;;;;5054356;28;20037;-35
2023/08/06 09:52:03;;;;;;;7.03;3.60;;;15.20;99.90;;;;;;5052274;28;20493;-35
2023/08/06 09:54:30;;;;;;;10.20;3.87;;;15.20;99.90;;;;;;5054556;28;20108;-37
2023/08/06 09:56:56;;;;;;;7.90;3.10;;;15.30;99.90;;;;;;5051546;28;20116;-35
2023/08/06 09:59:26;;;;;;;4.68;3.47;;;15.30;99.90;;;;;;5052098;28;20025;-36
2023/08/06 10:01:53;;;;;;;5.22;3.28;;;15.20;99.90;;;;;;5036956;28;20028;-35
2023/08/06 10:04:20;;;;;;;8.05;3.38;;;15.20;99.90;;;;;;5054308;28;20035;-36
2023/08/06 10:06:50;;;;;;;8.90;3.63;;;15.10;99.90;;;;;;5051204;28;20029;-35
2023/08/06 10:09:16;;;;;;;9.88;4.25;;;15.20;99.90;;;;;;5052145;28;20358;-36
2023/08/06 10:11:49;;;;;;;4.85;2.92;;;15.20;99.90;;;;;;5053057;28;20076;-35
2023/08/06 10:14:32;;;;;;;4.65;3.13;;;15.30;99.90;;;;;;4997851;28;20390;-35
2023/08/06 10:16:59;;;;;;;10.05;3.60;;;15.40;99.90;;;;;;5013850;28;20378;-36
2023/08/06 10:19:26;;;;;;;5.90;3.00;;;15.40;99.90;;;;;;5011964;28;20475;-35
2023/08/06 10:22:11;;;;;;;7.88;3.25;;;15.30;99.90;;;;;;5012997;28;20379;-35
2023/08/06 10:24:54;;;;;;;8.18;2.75;;;15.30;99.90;;;;;;5000919;28;20088;-35
2023/08/06 10:27:32;;;;;;;5.28;3.10;;;15.30;99.90;;;;;;5005209;28;20034;-36
2023/08/06 10:30:25;;;;;;;2.63;2.38;;;15.30;99.90;;;;;;5012944;28;20026;-37
2023/08/06 10:32:54;;;;;;;4.35;2.30;;;15.40;99.90;;;;;;5010466;28;20038;-57
2023/08/06 10:35:40;;;;;;;8.18;3.38;;;15.40;99.90;;;;;;5013634;28;20487;-51
2023/08/06 10:38:15;;;;;;;3.15;1.83;;;15.40;99.90;;;;;;5010608;28;20367;-52
2023/08/06 10:40:48;;;;;;;5.07;2.10;;;15.40;99.90;;;;;;5010326;28;20030;-48
2023/08/06 10:43:26;;;;;;;3.75;1.73;;;15.50;99.90;;;;;;5013036;28;20092;-52
2023/08/06 10:45:52;;;;;;;4.10;1.40;;;15.50;99.90;;;;;;5013731;28;20029;-50
2023/08/06 10:48:38;;;;;;;4.57;2.10;;;15.50;99.90;;;;;;5013648;28;20394;-51
2023/08/06 10:51:08;;;;;;;5.80;1.58;;;15.50;99.90;;;;;;5013710;28;20041;-48
2023/08/06 10:53:34;;;;;;;1.65;1.38;;;15.50;99.90;;;;;;5013374;28;20022;-53
2023/08/06 10:56:00;;;;;;;1.50;1.38;;;15.50;99.90;;;;;;5009991;28;20029;-52
2023/08/06 10:58:26;;;;;;;2.85;1.45;;;15.40;99.90;;;;;;5003870;28;20034;-51
2023/08/06 11:00:52;;;;;;;3.30;1.77;;;15.40;99.90;;;;;;5006587;28;20387;-52
2023/08/06 11:03:17;;;;;;;1.65;1.23;;;15.40;99.90;;;;;;5013957;28;20036;-52
2023/08/06 11:05:50;;;;;;;5.45;1.33;;;15.30;99.90;;;;;;5012225;28;20026;-52
2023/08/06 11:08:29;;;;;;;4.00;1.52;;;15.40;99.90;;;;;;5012051;28;20525;-57
2023/08/06 11:11:07;;;;;;;2.88;1.63;;;15.40;99.90;;;;;;5010797;28;20032;-49
2023/08/06 11:13:32;;;;;;;6.35;1.70;;;15.40;99.90;;;;;;5043007;28;20048;-47
2023/08/06 11:15:58;;;;;;;1.48;1.20;;;15.50;99.90;;;;;;5052026;28;20493;-51
2023/08/06 11:18:24;;;;;;;2.50;1.40;;;15.50;99.90;;;;;;5053586;28;20029;-52
2023/08/06 11:20:50;;;;;;;4.07;1.27;;;15.40;99.90;;;;;;5052865;28;20477;-52
2023/08/06 11:23:15;;;;;;;1.80;0.93;;;15.40;99.90;;;;;;5052835;28;20389;-49
2023/08/06 11:25:45;;;;;;;2.05;1.10;;;15.30;99.90;;;;;;5052550;28;20032;-52
2023/08/06 11:28:11;;;;;;;5.55;1.58;;;15.30;99.90;;;;;;5052369;28;20440;-53
2023/08/06 11:30:38;;;;;;;4.50;1.63;;;15.30;99.90;;;;;;5052537;28;20381;-53
2023/08/06 11:33:07;;;;;;;3.75;1.48;;;15.30;99.90;;;;;;5052185;28;20033;-53
2023/08/06 11:35:35;;;;;;;8.15;1.70;;;15.20;99.90;;;;;;5051525;28;20036;-50
2023/08/06 11:38:00;;;;;;;4.45;1.20;;;15.20;99.90;;;;;;5051761;28;20028;-47
2023/08/06 11:40:26;;;;;;;2.05;1.30;;;15.20;99.90;;;;;;5048870;28;20422;-50
2023/08/06 11:42:52;;;;;;;1.80;1.45;;;15.20;99.90;;;;;;5050480;28;20055;-62
2023/08/06 11:45:23;;;;;;;2.35;1.30;;;15.20;99.90;;;;;;5033636;28;20040;-59
2023/08/06 11:47:52;;;;;;;3.80;1.50;;;15.20;99.90;;;;;;5052910;28;20108;-50
2023/08/06 11:50:27;;;;;;;3.47;1.67;;;15.10;99.90;;;;;;5053001;28;20036;-49
2023/08/06 11:52:57;;;;;;;7.43;1.38;;;15.10;99.90;;;;;;5052938;28;20021;-49
2023/08/06 11:55:24;;;;;;;7.20;1.65;;;15.20;99.90;;;;;;5048850;28;20047;-51
2023/08/06 11:57:50;;;;;;;2.30;1.00;;;15.20;99.90;;;;;;5047468;28;20028;-55
2023/08/06 12:00:21;;;;;;;1.40;1.30;;;15.20;99.90;;;;;;5051374;28;20021;-50
2023/08/06 12:02:49;;;;;;;4.65;1.73;;;15.30;99.90;;;;;;5052176;28;20021;-48
2023/08/06 12:05:16;;;;;;;3.95;1.42;;;15.30;99.90;;;;;;5050678;28;20029;-52
2023/08/06 12:07:47;;;;;;;3.15;1.00;;;15.40;99.90;;;;;;5052712;28;20021;-53
2023/08/06 12:10:14;;;;;;;3.08;1.58;;;15.30;99.90;;;;;;5050285;28;20017;-52
2023/08/06 12:12:40;;;;;;;1.93;1.10;;;15.30;99.90;;;;;;5052440;28;20072;-50
2023/08/06 12:15:07;;;;;;;2.28;1.30;;;15.20;99.90;;;;;;5051892;28;20021;-51
2023/08/06 12:17:32;;;;;;;5.35;1.17;;;15.20;99.90;;;;;;5052698;28;20013;-51
2023/08/06 12:19:58;;;;;;;3.78;1.10;;;15.20;99.90;;;;;;5051930;28;20032;-52
2023/08/06 12:22:24;;;;;;;6.50;1.50;;;15.10;99.90;;;;;;5050502;28;20478;-52
2023/08/06 12:24:50;;;;;;;3.13;1.55;;;15.20;99.90;;;;;;5052452;28;20531;-52
2023/08/06 12:27:18;;;;;;;5.43;0.80;;;15.10;99.90;;;;;;5051670;28;20075;-49
2023/08/06 12:29:45;;;;;;;5.60;1.95;;;15.20;99.90;;;;;;5051817;28;20029;-52
2023/08/06 12:32:12;;;;;;;7.78;1.40;;;15.20;99.90;;;;;;5048988;28;20033;-50
2023/08/06 12:34:41;;;;;;;0.82;0.82;;;15.30;99.90;;;;;;5051197;28;20025;-52
2023/08/06 12:37:08;;;;;;;1.05;0.95;;;15.30;99.90;;;;;;5049640;28;20025;-52
2023/08/06 12:39:37;;;;;;;3.33;1.20;;;15.30;99.90;;;;;;5052240;28;20032;-52
2023/08/06 12:42:05;;;;;;;3.30;1.17;;;15.40;99.90;;;;;;5052370;28;20025;-52
2023/08/06 12:44:31;;;;;;;1.85;1.13;;;15.50;99.90;;;;;;5052479;28;20060;-53